sensor_id;sensor_type;location;lat;lon;timestamp;P1;durP1;ratioP1;P2;durP2;ratioP2
5345;SDS011;2695;49.444;11.054;2023-04-06T00:02:18;8.47;;;4.73;;
5345;SDS011;2695;49.444;11.054;2023-04-06T00:04:46;7.30;;;4.40;;
5345;SDS011;2695;49.444;11.054;2023-04-06T00:07:14;5.77;;;4.17;;
5345;SDS011;2695;49.444;11.054;2023-04-06T00:09:42;7.13;;;4.10;;
5345;SDS011;2695;49.444;11.054;2023-04-06T00:12:12;6.67;;;4.57;;
5345;SDS011;2695;49.444;11.054;2023-04-06T00:14:40;5.13;;;3.70;;
5345;SDS011;2695;49.444;11.054;2023-04-06T00:17:08;6.57;;;3.80;;
5345;SDS011;2695;49.444;11.054;2023-04-06T00:19:36;6.13;;;4.10;;
5345;SDS011;2695;49.444;11.054;2023-04-06T00:22:05;7.30;;;4.40;;
5345;SDS011;2695;49.444;11.054;2023-04-06T00:24:33;7.10;;;4.60;;
5345;SDS011;2695;49.444;11.054;2023-04-06T00:27:01;7.60;;;4.53;;
5345;SDS011;2695;49.444;11.054;2023-04-06T00:29:30;6.77;;;4.87;;
5345;SDS011;2695;49.444;11.054;2023-04-06T00:31:58;9.50;;;4.63;;
5345;SDS011;2695;49.444;11.054;2023-04-06T00:34:26;11.27;;;6.27;;
5345;SDS011;2695;49.444;11.054;2023-04-06T00:36:54;10.50;;;5.33;;
5345;SDS011;2695;49.444;11.054;2023-04-06T00:39:22;10.27;;;5.47;;
5345;SDS011;2695;49.444;11.054;2023-04-06T00:41:51;13.00;;;5.80;;
5345;SDS011;2695;49.444;11.054;2023-04-06T00:44:19;9.67;;;5.63;;
5345;SDS011;2695;49.444;11.054;2023-04-06T00:46:50;18.17;;;7.70;;
5345;SDS011;2695;49.444;11.054;2023-04-06T00:49:18;13.53;;;6.50;;
5345;SDS011;2695;49.444;11.054;2023-04-06T00:51:46;22.00;;;7.37;;
5345;SDS011;2695;49.444;11.054;2023-04-06T00:54:14;17.30;;;7.93;;
5345;SDS011;2695;49.444;11.054;2023-04-06T00:56:42;18.37;;;8.70;;
5345;SDS011;2695;49.444;11.054;2023-04-06T00:59:10;22.63;;;8.53;;
5345;SDS011;2695;49.444;11.054;2023-04-06T01:01:39;22.83;;;8.87;;
5345;SDS011;2695;49.444;11.054;2023-04-06T01:04:08;15.63;;;7.90;;
5345;SDS011;2695;49.444;11.054;2023-04-06T01:06:36;20.07;;;8.60;;
5345;SDS011;2695;49.444;11.054;2023-04-06T01:09:04;17.20;;;8.47;;
5345;SDS011;2695;49.444;11.054;2023-04-06T01:11:33;26.23;;;9.37;;
5345;SDS011;2695;49.444;11.054;2023-04-06T01:14:02;15.70;;;7.90;;
5345;SDS011;2695;49.444;11.054;2023-04-06T01:16:31;27.93;;;10.43;;
5345;SDS011;2695;49.444;11.054;2023-04-06T01:18:59;23.67;;;8.97;;
5345;SDS011;2695;49.444;11.054;2023-04-06T01:21:29;27.20;;;10.83;;
5345;SDS011;2695;49.444;11.054;2023-04-06T01:23:58;39.23;;;11.60;;
5345;SDS011;2695;49.444;11.054;2023-04-06T01:26:26;29.13;;;11.30;;
5345;SDS011;2695;49.444;11.054;2023-04-06T01:28:55;35.30;;;12.53;;
5345;SDS011;2695;49.444;11.054;2023-04-06T01:35:11;26.00;;;11.20;;
5345;SDS011;2695;49.444;11.054;2023-04-06T01:37:39;15.47;;;8.67;;
5345;SDS011;2695;49.444;11.054;2023-04-06T01:40:09;18.30;;;7.93;;
5345;SDS011;2695;49.444;11.054;2023-04-06T01:42:38;16.93;;;8.40;;
5345;SDS011;2695;49.444;11.054;2023-04-06T01:45:06;13.70;;;6.20;;
5345;SDS011;2695;49.444;11.054;2023-04-06T01:47:35;9.00;;;5.70;;
5345;SDS011;2695;49.444;11.054;2023-04-06T01:50:03;9.17;;;5.90;;
5345;SDS011;2695;49.444;11.054;2023-04-06T01:52:33;6.23;;;4.97;;
5345;SDS011;2695;49.444;11.054;2023-04-06T01:55:01;7.00;;;3.90;;
5345;SDS011;2695;49.444;11.054;2023-04-06T01:57:31;8.60;;;4.90;;
5345;SDS011;2695;49.444;11.054;2023-04-06T01:59:59;8.23;;;5.17;;
5345;SDS011;2695;49.444;11.054;2023-04-06T02:02:27;6.70;;;4.57;;
5345;SDS011;2695;49.444;11.054;2023-04-06T02:04:56;8.73;;;4.20;;
5345;SDS011;2695;49.444;11.054;2023-04-06T02:07:24;7.00;;;4.70;;
5345;SDS011;2695;49.444;11.054;2023-04-06T02:09:53;6.73;;;4.93;;
5345;SDS011;2695;49.444;11.054;2023-04-06T02:12:22;7.07;;;4.50;;
5345;SDS011;2695;49.444;11.054;2023-04-06T02:14:52;6.57;;;4.63;;
5345;SDS011;2695;49.444;11.054;2023-04-06T02:17:20;5.17;;;4.00;;
5345;SDS011;2695;49.444;11.054;2023-04-06T02:19:48;10.07;;;5.27;;
5345;SDS011;2695;49.444;11.054;2023-04-06T02:22:16;11.30;;;5.00;;
5345;SDS011;2695;49.444;11.054;2023-04-06T02:24:44;7.70;;;4.10;;
5345;SDS011;2695;49.444;11.054;2023-04-06T02:27:13;10.13;;;4.60;;
5345;SDS011;2695;49.444;11.054;2023-04-06T02:29:41;6.93;;;4.43;;
5345;SDS011;2695;49.444;11.054;2023-04-06T02:32:10;8.67;;;4.57;;
5345;SDS011;2695;49.444;11.054;2023-04-06T02:34:38;7.03;;;4.50;;
5345;SDS011;2695;49.444;11.054;2023-04-06T02:37:06;7.67;;;5.00;;
5345;SDS011;2695;49.444;11.054;2023-04-06T02:39:34;10.33;;;6.40;;
5345;SDS011;2695;49.444;11.054;2023-04-06T02:42:02;11.30;;;6.90;;
5345;SDS011;2695;49.444;11.054;2023-04-06T02:44:31;9.67;;;5.83;;
5345;SDS011;2695;49.444;11.054;2023-04-06T02:46:58;9.20;;;4.87;;
5345;SDS011;2695;49.444;11.054;2023-04-06T02:49:28;10.80;;;6.10;;
5345;SDS011;2695;49.444;11.054;2023-04-06T02:51:56;9.13;;;5.57;;
5345;SDS011;2695;49.444;11.054;2023-04-06T02:54:24;11.97;;;5.97;;
5345;SDS011;2695;49.444;11.054;2023-04-06T02:56:52;10.30;;;6.07;;
5345;SDS011;2695;49.444;11.054;2023-04-06T02:59:20;12.33;;;6.80;;
5345;SDS011;2695;49.444;11.054;2023-04-06T03:01:48;18.17;;;8.57;;
5345;SDS011;2695;49.444;11.054;2023-04-06T03:04:16;12.80;;;6.63;;
5345;SDS011;2695;49.444;11.054;2023-04-06T03:06:45;12.33;;;6.17;;
5345;SDS011;2695;49.444;11.054;2023-04-06T03:09:13;8.53;;;6.03;;
5345;SDS011;2695;49.444;11.054;2023-04-06T03:11:41;9.47;;;5.50;;
5345;SDS011;2695;49.444;11.054;2023-04-06T03:14:09;9.00;;;5.60;;
5345;SDS011;2695;49.444;11.054;2023-04-06T03:16:37;7.30;;;4.73;;
5345;SDS011;2695;49.444;11.054;2023-04-06T03:19:05;9.43;;;5.27;;
5345;SDS011;2695;49.444;11.054;2023-04-06T03:21:33;9.63;;;5.17;;
5345;SDS011;2695;49.444;11.054;2023-04-06T03:24:03;12.67;;;5.60;;
5345;SDS011;2695;49.444;11.054;2023-04-06T03:26:31;8.00;;;5.43;;
5345;SDS011;2695;49.444;11.054;2023-04-06T03:28:59;10.40;;;5.77;;
5345;SDS011;2695;49.444;11.054;2023-04-06T03:31:27;11.40;;;6.60;;
5345;SDS011;2695;49.444;11.054;2023-04-06T03:33:55;10.93;;;6.00;;
5345;SDS011;2695;49.444;11.054;2023-04-06T03:36:23;10.33;;;5.50;;
5345;SDS011;2695;49.444;11.054;2023-04-06T03:38:51;10.40;;;5.70;;
5345;SDS011;2695;49.444;11.054;2023-04-06T03:41:21;11.43;;;5.60;;
5345;SDS011;2695;49.444;11.054;2023-04-06T03:43:49;9.67;;;5.10;;
5345;SDS011;2695;49.444;11.054;2023-04-06T03:46:17;8.70;;;5.73;;
5345;SDS011;2695;49.444;11.054;2023-04-06T03:48:45;7.37;;;5.00;;
5345;SDS011;2695;49.444;11.054;2023-04-06T03:51:15;9.50;;;4.60;;
5345;SDS011;2695;49.444;11.054;2023-04-06T03:53:43;11.80;;;5.63;;
5345;SDS011;2695;49.444;11.054;2023-04-06T03:56:11;8.87;;;4.80;;
5345;SDS011;2695;49.444;11.054;2023-04-06T03:58:40;10.60;;;5.20;;
5345;SDS011;2695;49.444;11.054;2023-04-06T04:01:08;7.50;;;5.23;;
5345;SDS011;2695;49.444;11.054;2023-04-06T04:03:36;8.30;;;5.80;;
5345;SDS011;2695;49.444;11.054;2023-04-06T04:06:04;10.03;;;5.90;;
5345;SDS011;2695;49.444;11.054;2023-04-06T04:08:32;8.73;;;5.73;;
5345;SDS011;2695;49.444;11.054;2023-04-06T04:11:01;8.93;;;4.67;;
5345;SDS011;2695;49.444;11.054;2023-04-06T04:13:29;9.67;;;4.93;;
5345;SDS011;2695;49.444;11.054;2023-04-06T04:15:58;5.57;;;4.30;;
5345;SDS011;2695;49.444;11.054;2023-04-06T04:18:27;9.20;;;4.50;;
5345;SDS011;2695;49.444;11.054;2023-04-06T04:20:55;9.40;;;4.90;;
5345;SDS011;2695;49.444;11.054;2023-04-06T04:23:23;6.33;;;4.67;;
5345;SDS011;2695;49.444;11.054;2023-04-06T04:25:51;5.43;;;4.37;;
5345;SDS011;2695;49.444;11.054;2023-04-06T04:28:19;9.97;;;4.40;;
5345;SDS011;2695;49.444;11.054;2023-04-06T04:30:47;7.77;;;4.23;;
5345;SDS011;2695;49.444;11.054;2023-04-06T04:33:16;6.70;;;4.03;;
5345;SDS011;2695;49.444;11.054;2023-04-06T04:35:44;8.90;;;5.00;;
5345;SDS011;2695;49.444;11.054;2023-04-06T04:38:12;8.40;;;4.67;;
5345;SDS011;2695;49.444;11.054;2023-04-06T04:40:40;11.23;;;4.63;;
5345;SDS011;2695;49.444;11.054;2023-04-06T04:43:08;7.20;;;3.87;;
5345;SDS011;2695;49.444;11.054;2023-04-06T04:45:36;11.97;;;4.70;;
5345;SDS011;2695;49.444;11.054;2023-04-06T04:48:04;6.63;;;3.70;;
5345;SDS011;2695;49.444;11.054;2023-04-06T04:50:33;11.83;;;4.20;;
5345;SDS011;2695;49.444;11.054;2023-04-06T04:53:01;6.47;;;4.00;;
5345;SDS011;2695;49.444;11.054;2023-04-06T04:55:31;5.43;;;4.13;;
5345;SDS011;2695;49.444;11.054;2023-04-06T04:57:59;9.67;;;4.90;;
5345;SDS011;2695;49.444;11.054;2023-04-06T05:00:28;6.47;;;4.30;;
5345;SDS011;2695;49.444;11.054;2023-04-06T05:02:56;5.83;;;3.30;;
5345;SDS011;2695;49.444;11.054;2023-04-06T05:05:24;8.27;;;4.10;;
5345;SDS011;2695;49.444;11.054;2023-04-06T05:07:54;13.90;;;5.20;;
5345;SDS011;2695;49.444;11.054;2023-04-06T05:10:22;10.70;;;4.90;;
5345;SDS011;2695;49.444;11.054;2023-04-06T05:12:50;9.40;;;5.00;;
5345;SDS011;2695;49.444;11.054;2023-04-06T05:15:18;9.63;;;6.13;;
5345;SDS011;2695;49.444;11.054;2023-04-06T05:17:46;9.40;;;6.13;;
5345;SDS011;2695;49.444;11.054;2023-04-06T05:20:14;10.77;;;5.60;;
5345;SDS011;2695;49.444;11.054;2023-04-06T05:22:42;12.90;;;5.77;;
5345;SDS011;2695;49.444;11.054;2023-04-06T05:25:12;9.60;;;5.17;;
5345;SDS011;2695;49.444;11.054;2023-04-06T05:27:40;10.40;;;5.20;;
5345;SDS011;2695;49.444;11.054;2023-04-06T05:30:08;7.77;;;4.93;;
5345;SDS011;2695;49.444;11.054;2023-04-06T05:32:37;9.73;;;5.03;;
5345;SDS011;2695;49.444;11.054;2023-04-06T05:35:05;13.87;;;6.30;;
5345;SDS011;2695;49.444;11.054;2023-04-06T05:37:33;19.17;;;6.20;;
5345;SDS011;2695;49.444;11.054;2023-04-06T05:40:01;10.43;;;6.60;;
5345;SDS011;2695;49.444;11.054;2023-04-06T05:42:36;15.30;;;6.80;;
5345;SDS011;2695;49.444;11.054;2023-04-06T05:45:05;13.50;;;6.30;;
5345;SDS011;2695;49.444;11.054;2023-04-06T05:47:34;13.80;;;6.30;;
5345;SDS011;2695;49.444;11.054;2023-04-06T05:50:02;14.53;;;6.80;;
5345;SDS011;2695;49.444;11.054;2023-04-06T05:52:31;10.63;;;5.80;;
5345;SDS011;2695;49.444;11.054;2023-04-06T05:55:00;12.63;;;5.93;;
5345;SDS011;2695;49.444;11.054;2023-04-06T05:57:28;13.83;;;6.33;;
5345;SDS011;2695;49.444;11.054;2023-04-06T05:59:57;11.53;;;6.07;;
5345;SDS011;2695;49.444;11.054;2023-04-06T06:02:25;9.57;;;6.00;;
5345;SDS011;2695;49.444;11.054;2023-04-06T06:04:53;15.50;;;6.80;;
5345;SDS011;2695;49.444;11.054;2023-04-06T06:07:22;12.57;;;5.70;;
5345;SDS011;2695;49.444;11.054;2023-04-06T06:09:50;9.80;;;6.40;;
5345;SDS011;2695;49.444;11.054;2023-04-06T06:12:18;18.33;;;5.80;;
5345;SDS011;2695;49.444;11.054;2023-04-06T06:14:46;10.20;;;5.50;;
5345;SDS011;2695;49.444;11.054;2023-04-06T06:17:16;7.90;;;5.50;;
5345;SDS011;2695;49.444;11.054;2023-04-06T06:19:44;12.50;;;5.70;;
5345;SDS011;2695;49.444;11.054;2023-04-06T06:22:12;12.53;;;6.37;;
5345;SDS011;2695;49.444;11.054;2023-04-06T06:24:41;11.83;;;6.20;;
5345;SDS011;2695;49.444;11.054;2023-04-06T06:27:09;14.70;;;7.33;;
5345;SDS011;2695;49.444;11.054;2023-04-06T06:29:37;10.67;;;5.03;;
5345;SDS011;2695;49.444;11.054;2023-04-06T06:32:05;8.03;;;5.20;;
5345;SDS011;2695;49.444;11.054;2023-04-06T06:34:36;14.73;;;5.80;;
5345;SDS011;2695;49.444;11.054;2023-04-06T06:37:05;16.67;;;6.00;;
5345;SDS011;2695;49.444;11.054;2023-04-06T06:39:33;9.80;;;5.80;;
5345;SDS011;2695;49.444;11.054;2023-04-06T06:42:01;7.47;;;4.70;;
5345;SDS011;2695;49.444;11.054;2023-04-06T06:44:29;9.93;;;4.80;;
5345;SDS011;2695;49.444;11.054;2023-04-06T06:46:57;8.27;;;5.32;;
5345;SDS011;2695;49.444;11.054;2023-04-06T06:49:25;9.00;;;5.03;;
5345;SDS011;2695;49.444;11.054;2023-04-06T06:51:55;8.00;;;5.40;;
5345;SDS011;2695;49.444;11.054;2023-04-06T06:54:23;8.68;;;4.40;;
5345;SDS011;2695;49.444;11.054;2023-04-06T06:56:54;5.63;;;4.82;;
5345;SDS011;2695;49.444;11.054;2023-04-06T06:59:22;8.82;;;5.30;;
5345;SDS011;2695;49.444;11.054;2023-04-06T07:01:50;7.80;;;4.80;;
5345;SDS011;2695;49.444;11.054;2023-04-06T07:04:18;5.88;;;4.93;;
5345;SDS011;2695;49.444;11.054;2023-04-06T07:06:46;12.18;;;5.00;;
5345;SDS011;2695;49.444;11.054;2023-04-06T07:09:15;9.70;;;4.93;;
5345;SDS011;2695;49.444;11.054;2023-04-06T07:11:43;5.50;;;4.50;;
5345;SDS011;2695;49.444;11.054;2023-04-06T07:14:11;9.60;;;5.05;;
5345;SDS011;2695;49.444;11.054;2023-04-06T07:16:39;9.52;;;5.72;;
5345;SDS011;2695;49.444;11.054;2023-04-06T07:19:07;7.13;;;5.03;;
5345;SDS011;2695;49.444;11.054;2023-04-06T07:21:36;6.78;;;5.38;;
5345;SDS011;2695;49.444;11.054;2023-04-06T07:24:04;9.23;;;5.28;;
5345;SDS011;2695;49.444;11.054;2023-04-06T07:26:34;7.88;;;5.32;;
5345;SDS011;2695;49.444;11.054;2023-04-06T07:29:02;7.13;;;4.60;;
5345;SDS011;2695;49.444;11.054;2023-04-06T07:31:30;7.43;;;5.05;;
5345;SDS011;2695;49.444;11.054;2023-04-06T07:33:58;8.20;;;5.15;;
5345;SDS011;2695;49.444;11.054;2023-04-06T07:36:26;8.23;;;5.10;;
5345;SDS011;2695;49.444;11.054;2023-04-06T07:38:54;6.90;;;5.47;;
5345;SDS011;2695;49.444;11.054;2023-04-06T07:41:22;7.93;;;5.38;;
5345;SDS011;2695;49.444;11.054;2023-04-06T07:43:52;7.70;;;5.85;;
5345;SDS011;2695;49.444;11.054;2023-04-06T07:46:20;5.95;;;4.75;;
5345;SDS011;2695;49.444;11.054;2023-04-06T07:48:48;7.60;;;5.50;;
5345;SDS011;2695;49.444;11.054;2023-04-06T07:51:16;6.40;;;5.57;;
5345;SDS011;2695;49.444;11.054;2023-04-06T07:53:44;8.70;;;5.32;;
5345;SDS011;2695;49.444;11.054;2023-04-06T07:56:12;6.47;;;5.78;;
5345;SDS011;2695;49.444;11.054;2023-04-06T07:58:41;9.30;;;5.78;;
5345;SDS011;2695;49.444;11.054;2023-04-06T08:01:10;10.02;;;6.10;;
5345;SDS011;2695;49.444;11.054;2023-04-06T08:03:38;7.50;;;5.50;;
5345;SDS011;2695;49.444;11.054;2023-04-06T08:06:07;6.60;;;5.57;;
5345;SDS011;2695;49.444;11.054;2023-04-06T08:08:35;11.65;;;6.28;;
5345;SDS011;2695;49.444;11.054;2023-04-06T08:11:04;8.50;;;5.00;;
5345;SDS011;2695;49.444;11.054;2023-04-06T08:13:32;6.75;;;5.38;;
5345;SDS011;2695;49.444;11.054;2023-04-06T08:16:00;9.90;;;6.50;;
5345;SDS011;2695;49.444;11.054;2023-04-06T08:18:30;8.20;;;6.20;;
5345;SDS011;2695;49.444;11.054;2023-04-06T08:20:58;8.60;;;6.03;;
5345;SDS011;2695;49.444;11.054;2023-04-06T08:23:26;10.95;;;6.43;;
5345;SDS011;2695;49.444;11.054;2023-04-06T08:25:54;12.10;;;6.13;;
5345;SDS011;2695;49.444;11.054;2023-04-06T08:28:22;9.48;;;5.78;;
5345;SDS011;2695;49.444;11.054;2023-04-06T08:30:50;7.78;;;6.07;;
5345;SDS011;2695;49.444;11.054;2023-04-06T08:33:18;8.43;;;6.00;;
5345;SDS011;2695;49.444;11.054;2023-04-06T08:35:47;9.98;;;7.05;;
5345;SDS011;2695;49.444;11.054;2023-04-06T08:38:15;7.80;;;5.80;;
5345;SDS011;2695;49.444;11.054;2023-04-06T08:40:43;9.63;;;6.15;;
5345;SDS011;2695;49.444;11.054;2023-04-06T08:43:14;11.95;;;6.32;;
5345;SDS011;2695;49.444;11.054;2023-04-06T08:45:44;9.75;;;5.90;;
5345;SDS011;2695;49.444;11.054;2023-04-06T08:48:12;9.98;;;6.20;;
5345;SDS011;2695;49.444;11.054;2023-04-06T08:50:41;7.28;;;5.93;;
5345;SDS011;2695;49.444;11.054;2023-04-06T08:53:11;9.95;;;7.03;;
5345;SDS011;2695;49.444;11.054;2023-04-06T08:55:39;8.75;;;5.78;;
5345;SDS011;2695;49.444;11.054;2023-04-06T08:58:10;7.13;;;5.18;;
5345;SDS011;2695;49.444;11.054;2023-04-06T09:00:40;8.32;;;5.40;;
5345;SDS011;2695;49.444;11.054;2023-04-06T09:03:09;8.23;;;5.82;;
5345;SDS011;2695;49.444;11.054;2023-04-06T09:05:40;13.27;;;5.88;;
5345;SDS011;2695;49.444;11.054;2023-04-06T09:08:09;6.32;;;4.50;;
5345;SDS011;2695;49.444;11.054;2023-04-06T09:10:40;8.02;;;5.65;;
5345;SDS011;2695;49.444;11.054;2023-04-06T09:13:08;7.25;;;6.15;;
5345;SDS011;2695;49.444;11.054;2023-04-06T09:15:36;6.90;;;5.75;;
5345;SDS011;2695;49.444;11.054;2023-04-06T09:18:05;7.70;;;6.18;;
5345;SDS011;2695;49.444;11.054;2023-04-06T09:20:34;6.93;;;5.47;;
5345;SDS011;2695;49.444;11.054;2023-04-06T09:23:02;7.13;;;5.75;;
5345;SDS011;2695;49.444;11.054;2023-04-06T09:25:30;12.32;;;5.65;;
5345;SDS011;2695;49.444;11.054;2023-04-06T09:28:00;8.40;;;6.20;;
5345;SDS011;2695;49.444;11.054;2023-04-06T09:30:29;9.13;;;5.97;;
5345;SDS011;2695;49.444;11.054;2023-04-06T09:32:58;18.27;;;6.80;;
5345;SDS011;2695;49.444;11.054;2023-04-06T09:35:26;10.18;;;6.68;;
5345;SDS011;2695;49.444;11.054;2023-04-06T09:37:56;6.53;;;5.63;;
5345;SDS011;2695;49.444;11.054;2023-04-06T09:40:24;8.65;;;6.75;;
5345;SDS011;2695;49.444;11.054;2023-04-06T09:42:52;7.57;;;6.03;;
5345;SDS011;2695;49.444;11.054;2023-04-06T09:45:25;7.55;;;6.20;;
5345;SDS011;2695;49.444;11.054;2023-04-06T09:47:54;8.63;;;6.60;;
5345;SDS011;2695;49.444;11.054;2023-04-06T09:50:22;10.05;;;6.88;;
5345;SDS011;2695;49.444;11.054;2023-04-06T09:52:54;10.45;;;6.18;;
5345;SDS011;2695;49.444;11.054;2023-04-06T09:55:26;7.32;;;6.15;;
5345;SDS011;2695;49.444;11.054;2023-04-06T09:58:00;8.43;;;6.00;;
5345;SDS011;2695;49.444;11.054;2023-04-06T10:00:34;7.85;;;6.53;;
5345;SDS011;2695;49.444;11.054;2023-04-06T10:03:12;8.80;;;6.85;;
5345;SDS011;2695;49.444;11.054;2023-04-06T10:05:49;7.57;;;6.28;;
5345;SDS011;2695;49.444;11.054;2023-04-06T10:08:22;6.40;;;5.80;;
5345;SDS011;2695;49.444;11.054;2023-04-06T10:10:57;8.35;;;6.78;;
5345;SDS011;2695;49.444;11.054;2023-04-06T10:13:27;7.85;;;5.95;;
5345;SDS011;2695;49.444;11.054;2023-04-06T10:15:57;8.73;;;6.53;;
5345;SDS011;2695;49.444;11.054;2023-04-06T10:18:27;8.60;;;6.38;;
5345;SDS011;2695;49.444;11.054;2023-04-06T10:20:57;9.77;;;6.78;;
5345;SDS011;2695;49.444;11.054;2023-04-06T10:23:29;7.18;;;6.20;;
5345;SDS011;2695;49.444;11.054;2023-04-06T10:26:01;7.75;;;6.45;;
5345;SDS011;2695;49.444;11.054;2023-04-06T10:28:30;7.63;;;6.03;;
5345;SDS011;2695;49.444;11.054;2023-04-06T10:31:01;13.70;;;6.72;;
5345;SDS011;2695;49.444;11.054;2023-04-06T10:33:32;9.70;;;6.68;;
5345;SDS011;2695;49.444;11.054;2023-04-06T10:36:09;8.77;;;6.55;;
5345;SDS011;2695;49.444;11.054;2023-04-06T10:38:38;10.32;;;6.60;;
5345;SDS011;2695;49.444;11.054;2023-04-06T10:41:08;7.47;;;5.50;;
5345;SDS011;2695;49.444;11.054;2023-04-06T10:43:37;8.55;;;5.82;;
5345;SDS011;2695;49.444;11.054;2023-04-06T10:46:07;7.55;;;5.65;;
5345;SDS011;2695;49.444;11.054;2023-04-06T10:48:37;8.02;;;6.20;;
5345;SDS011;2695;49.444;11.054;2023-04-06T10:51:07;7.85;;;5.80;;
5345;SDS011;2695;49.444;11.054;2023-04-06T10:53:36;7.55;;;6.10;;
5345;SDS011;2695;49.444;11.054;2023-04-06T10:56:04;9.40;;;6.25;;
5345;SDS011;2695;49.444;11.054;2023-04-06T10:58:37;9.98;;;7.15;;
5345;SDS011;2695;49.444;11.054;2023-04-06T11:01:07;8.00;;;6.43;;
5345;SDS011;2695;49.444;11.054;2023-04-06T11:03:45;7.88;;;6.30;;
5345;SDS011;2695;49.444;11.054;2023-04-06T11:06:20;7.45;;;6.07;;
5345;SDS011;2695;49.444;11.054;2023-04-06T11:08:49;8.60;;;6.35;;
5345;SDS011;2695;49.444;11.054;2023-04-06T11:11:20;12.00;;;8.70;;
5345;SDS011;2695;49.444;11.054;2023-04-06T11:13:50;9.97;;;6.97;;
5345;SDS011;2695;49.444;11.054;2023-04-06T11:16:24;10.83;;;6.20;;
5345;SDS011;2695;49.444;11.054;2023-04-06T11:18:54;9.33;;;5.80;;
5345;SDS011;2695;49.444;11.054;2023-04-06T11:21:33;6.70;;;5.57;;
5345;SDS011;2695;49.444;11.054;2023-04-06T11:24:04;5.93;;;5.10;;
5345;SDS011;2695;49.444;11.054;2023-04-06T11:26:38;6.40;;;5.27;;
5345;SDS011;2695;49.444;11.054;2023-04-06T11:29:12;7.17;;;5.23;;
5345;SDS011;2695;49.444;11.054;2023-04-06T11:31:42;6.37;;;4.93;;
5345;SDS011;2695;49.444;11.054;2023-04-06T11:34:13;5.10;;;4.47;;
5345;SDS011;2695;49.444;11.054;2023-04-06T11:36:48;7.20;;;5.40;;
5345;SDS011;2695;49.444;11.054;2023-04-06T11:39:23;8.10;;;5.47;;
5345;SDS011;2695;49.444;11.054;2023-04-06T11:41:54;12.57;;;6.63;;
5345;SDS011;2695;49.444;11.054;2023-04-06T11:44:28;7.13;;;5.60;;
5345;SDS011;2695;49.444;11.054;2023-04-06T11:47:00;7.80;;;5.90;;
5345;SDS011;2695;49.444;11.054;2023-04-06T11:49:29;7.73;;;4.83;;
5345;SDS011;2695;49.444;11.054;2023-04-06T11:51:57;9.00;;;5.17;;
5345;SDS011;2695;49.444;11.054;2023-04-06T11:54:30;11.57;;;5.63;;
5345;SDS011;2695;49.444;11.054;2023-04-06T11:56:58;6.90;;;5.30;;
5345;SDS011;2695;49.444;11.054;2023-04-06T11:59:29;8.90;;;5.23;;
5345;SDS011;2695;49.444;11.054;2023-04-06T12:02:03;8.07;;;5.13;;
5345;SDS011;2695;49.444;11.054;2023-04-06T12:04:32;10.33;;;6.20;;
5345;SDS011;2695;49.444;11.054;2023-04-06T12:07:00;9.00;;;5.47;;
5345;SDS011;2695;49.444;11.054;2023-04-06T12:09:29;10.17;;;5.47;;
5345;SDS011;2695;49.444;11.054;2023-04-06T12:11:57;11.27;;;5.60;;
5345;SDS011;2695;49.444;11.054;2023-04-06T12:14:26;6.30;;;5.10;;
5345;SDS011;2695;49.444;11.054;2023-04-06T12:16:54;8.17;;;5.83;;
5345;SDS011;2695;49.444;11.054;2023-04-06T12:19:23;5.53;;;4.73;;
5345;SDS011;2695;49.444;11.054;2023-04-06T12:21:52;6.57;;;5.20;;
5345;SDS011;2695;49.444;11.054;2023-04-06T12:24:20;6.33;;;5.47;;
5345;SDS011;2695;49.444;11.054;2023-04-06T12:26:49;7.13;;;4.90;;
5345;SDS011;2695;49.444;11.054;2023-04-06T12:29:31;7.33;;;5.53;;
5345;SDS011;2695;49.444;11.054;2023-04-06T12:31:59;6.17;;;4.77;;
5345;SDS011;2695;49.444;11.054;2023-04-06T12:34:29;7.57;;;5.33;;
5345;SDS011;2695;49.444;11.054;2023-04-06T12:36:57;6.50;;;5.40;;
5345;SDS011;2695;49.444;11.054;2023-04-06T12:39:26;8.60;;;5.50;;
5345;SDS011;2695;49.444;11.054;2023-04-06T12:41:55;6.63;;;5.80;;
5345;SDS011;2695;49.444;11.054;2023-04-06T12:44:29;6.03;;;5.40;;
5345;SDS011;2695;49.444;11.054;2023-04-06T12:47:00;8.17;;;5.87;;
5345;SDS011;2695;49.444;11.054;2023-04-06T12:49:32;12.33;;;6.40;;
5345;SDS011;2695;49.444;11.054;2023-04-06T12:52:01;9.33;;;6.03;;
5345;SDS011;2695;49.444;11.054;2023-04-06T12:54:30;10.67;;;6.20;;
5345;SDS011;2695;49.444;11.054;2023-04-06T12:56:58;10.10;;;5.60;;
5345;SDS011;2695;49.444;11.054;2023-04-06T12:59:27;14.10;;;6.80;;
5345;SDS011;2695;49.444;11.054;2023-04-06T13:02:00;8.70;;;6.20;;
5345;SDS011;2695;49.444;11.054;2023-04-06T13:04:28;7.40;;;4.90;;
5345;SDS011;2695;49.444;11.054;2023-04-06T13:06:58;7.77;;;5.97;;
5345;SDS011;2695;49.444;11.054;2023-04-06T13:09:26;7.60;;;5.90;;
5345;SDS011;2695;49.444;11.054;2023-04-06T13:11:54;6.73;;;5.93;;
5345;SDS011;2695;49.444;11.054;2023-04-06T13:14:22;9.90;;;6.00;;
5345;SDS011;2695;49.444;11.054;2023-04-06T13:16:51;8.07;;;5.60;;
5345;SDS011;2695;49.444;11.054;2023-04-06T13:19:19;9.13;;;6.10;;
5345;SDS011;2695;49.444;11.054;2023-04-06T13:21:47;8.83;;;6.10;;
5345;SDS011;2695;49.444;11.054;2023-04-06T13:24:17;9.33;;;6.50;;
5345;SDS011;2695;49.444;11.054;2023-04-06T13:26:45;9.70;;;6.00;;
5345;SDS011;2695;49.444;11.054;2023-04-06T13:29:13;7.90;;;6.00;;
5345;SDS011;2695;49.444;11.054;2023-04-06T13:31:41;5.87;;;5.20;;
5345;SDS011;2695;49.444;11.054;2023-04-06T13:34:09;9.17;;;6.30;;
5345;SDS011;2695;49.444;11.054;2023-04-06T13:36:37;8.50;;;5.93;;
5345;SDS011;2695;49.444;11.054;2023-04-06T13:39:08;8.80;;;6.57;;
5345;SDS011;2695;49.444;11.054;2023-04-06T13:41:37;8.20;;;6.30;;
5345;SDS011;2695;49.444;11.054;2023-04-06T13:44:06;7.60;;;5.23;;
5345;SDS011;2695;49.444;11.054;2023-04-06T13:46:34;7.57;;;5.70;;
5345;SDS011;2695;49.444;11.054;2023-04-06T13:49:03;7.07;;;5.80;;
5345;SDS011;2695;49.444;11.054;2023-04-06T13:51:31;9.33;;;6.03;;
5345;SDS011;2695;49.444;11.054;2023-04-06T13:53:59;7.90;;;6.03;;
5345;SDS011;2695;49.444;11.054;2023-04-06T13:56:27;8.53;;;5.43;;
5345;SDS011;2695;49.444;11.054;2023-04-06T13:58:57;10.73;;;6.63;;
5345;SDS011;2695;49.444;11.054;2023-04-06T14:01:25;7.93;;;6.43;;
5345;SDS011;2695;49.444;11.054;2023-04-06T14:03:53;7.90;;;5.17;;
5345;SDS011;2695;49.444;11.054;2023-04-06T14:06:21;8.10;;;6.30;;
5345;SDS011;2695;49.444;11.054;2023-04-06T14:08:52;7.93;;;5.97;;
5345;SDS011;2695;49.444;11.054;2023-04-06T14:11:23;6.70;;;5.60;;
5345;SDS011;2695;49.444;11.054;2023-04-06T14:13:51;8.13;;;5.70;;
5345;SDS011;2695;49.444;11.054;2023-04-06T14:16:23;8.40;;;6.23;;
5345;SDS011;2695;49.444;11.054;2023-04-06T14:18:51;8.87;;;5.53;;
5345;SDS011;2695;49.444;11.054;2023-04-06T14:21:19;14.80;;;6.60;;
5345;SDS011;2695;49.444;11.054;2023-04-06T14:23:47;7.07;;;5.63;;
5345;SDS011;2695;49.444;11.054;2023-04-06T14:26:15;8.90;;;6.13;;
5345;SDS011;2695;49.444;11.054;2023-04-06T14:28:44;7.77;;;5.90;;
5345;SDS011;2695;49.444;11.054;2023-04-06T14:31:13;12.23;;;6.20;;
5345;SDS011;2695;49.444;11.054;2023-04-06T14:33:44;7.70;;;5.73;;
5345;SDS011;2695;49.444;11.054;2023-04-06T14:36:12;8.13;;;5.80;;
5345;SDS011;2695;49.444;11.054;2023-04-06T14:38:40;7.10;;;6.00;;
5345;SDS011;2695;49.444;11.054;2023-04-06T14:41:14;19.20;;;6.30;;
5345;SDS011;2695;49.444;11.054;2023-04-06T14:43:43;8.00;;;5.90;;
5345;SDS011;2695;49.444;11.054;2023-04-06T14:46:11;10.43;;;5.47;;
5345;SDS011;2695;49.444;11.054;2023-04-06T14:48:39;8.67;;;5.27;;
5345;SDS011;2695;49.444;11.054;2023-04-06T14:51:09;10.70;;;6.17;;
5345;SDS011;2695;49.444;11.054;2023-04-06T14:53:37;8.33;;;5.90;;
5345;SDS011;2695;49.444;11.054;2023-04-06T14:56:05;7.53;;;5.40;;
5345;SDS011;2695;49.444;11.054;2023-04-06T14:58:34;7.87;;;5.87;;
5345;SDS011;2695;49.444;11.054;2023-04-06T15:01:02;7.67;;;5.57;;
5345;SDS011;2695;49.444;11.054;2023-04-06T15:03:30;6.40;;;5.03;;
5345;SDS011;2695;49.444;11.054;2023-04-06T15:05:58;6.47;;;4.90;;
5345;SDS011;2695;49.444;11.054;2023-04-06T15:08:27;12.60;;;5.87;;
5345;SDS011;2695;49.444;11.054;2023-04-06T15:10:58;6.90;;;5.30;;
5345;SDS011;2695;49.444;11.054;2023-04-06T15:13:26;14.93;;;9.00;;